This is the latest recevied weather packets stored in our database for station/object SP8C-13. If no packets are shown the sender has not sent any weather packets the latest 10 day(s).
| Time | Temp. | Humidity | Pressure | Rain* | Wind** | Luminosity | Snow |
|---|---|---|---|---|---|---|---|
| 1788707849 | 17.78° C | 59% | 1024.5 hPa | - | - | - | - |
| 1788706049 | 16.67° C | 61% | 1024.2 hPa | - | - | - | - |
| 1788704249 | 17.78° C | 59% | 1024.1 hPa | - | - | - | - |
| 1788702449 | 17.22° C | 59% | 1023.9 hPa | - | - | - | - |
| 1788700648 | 16.67° C | 61% | 1023.9 hPa | - | - | - | - |
| 1788698848 | 16.67° C | 62% | 1023.9 hPa | - | - | - | - |
| 1788697048 | 16.11° C | 63% | 1023.6 hPa | - | - | - | - |
| 1788695248 | 15.56° C | 64% | 1023.3 hPa | - | - | - | - |
| 1788693448 | 15.56° C | 63% | 1023 hPa | - | - | - | - |
| 1788691648 | 16.11° C | 60% | 1022.9 hPa | - | - | - | - |
| 1788689847 | 16.11° C | 58% | 1022.5 hPa | - | - | - | - |
| 1788688046 | 16.11° C | 61% | 1022.2 hPa | - | - | - | - |
| 1788686246 | 15.56° C | 62% | 1022.2 hPa | - | - | - | - |
| 1788682645 | 15.56° C | 61% | 1021.7 hPa | - | - | - | - |
| 1788679045 | 15° C | 69% | 1020.9 hPa | - | - | - | - |
| 1788677245 | 15.56° C | 67% | 1020.6 hPa | - | - | - | - |
| 1788675445 | 14.44° C | 74% | 1020.4 hPa | - | - | - | - |
| 1788671845 | 12.78° C | 81% | 1020.2 hPa | - | - | - | - |
| 1788670045 | 12.22° C | 83% | 1019.9 hPa | - | - | - | - |
| 1788668244 | 11.67° C | 87% | 1019.5 hPa | - | - | - | - |
| 1788666445 | 11.11° C | 90% | 1019.3 hPa | - | - | - | - |
| 1788664645 | 11.67° C | 90% | 1019.1 hPa | - | - | - | - |
| 1788662845 | 11.11° C | 90% | 1019 hPa | - | - | - | - |
| 1788661045 | 11.67° C | 90% | 1018.8 hPa | - | - | - | - |
| 1788657445 | 11.11° C | 92% | 1018.5 hPa | - | - | - | - |
* Rain since midnight (hover to see other rain measurements)
** Current wind speed in m/s (hover to see current wind gust speed)